sensor_id;sensor_type;location;lat;lon;timestamp;P1;durP1;ratioP1;P2;durP2;ratioP2
47958;SDS011;33718;50.910;-1.514;2024-03-02T00:00:50;7.47;;;0.55;;
47958;SDS011;33718;50.910;-1.514;2024-03-02T00:02:53;11.50;;;0.93;;
47958;SDS011;33718;50.910;-1.514;2024-03-02T00:05:13;6.63;;;0.75;;
47958;SDS011;33718;50.910;-1.514;2024-03-02T00:07:15;8.23;;;0.65;;
47958;SDS011;33718;50.910;-1.514;2024-03-02T00:09:35;3.80;;;1.00;;
47958;SDS011;33718;50.910;-1.514;2024-03-02T00:11:38;8.57;;;2.15;;
47958;SDS011;33718;50.910;-1.514;2024-03-02T00:13:58;6.88;;;0.57;;
47958;SDS011;33718;50.910;-1.514;2024-03-02T00:16:01;8.73;;;1.75;;
47958;SDS011;33718;50.910;-1.514;2024-03-02T00:18:03;8.55;;;0.77;;
47958;SDS011;33718;50.910;-1.514;2024-03-02T00:20:06;10.02;;;1.13;;
47958;SDS011;33718;50.910;-1.514;2024-03-02T00:22:10;17.02;;;2.38;;
47958;SDS011;33718;50.910;-1.514;2024-03-02T00:24:17;13.63;;;2.00;;
47958;SDS011;33718;50.910;-1.514;2024-03-02T00:26:21;13.27;;;1.45;;
47958;SDS011;33718;50.910;-1.514;2024-03-02T00:28:23;10.70;;;0.93;;
47958;SDS011;33718;50.910;-1.514;2024-03-02T00:32:45;7.55;;;1.33;;
47958;SDS011;33718;50.910;-1.514;2024-03-02T00:34:47;13.43;;;0.90;;
47958;SDS011;33718;50.910;-1.514;2024-03-02T00:36:48;12.48;;;1.15;;
47958;SDS011;33718;50.910;-1.514;2024-03-02T00:38:51;7.40;;;2.40;;
47958;SDS011;33718;50.910;-1.514;2024-03-02T00:40:52;4.07;;;1.02;;
47958;SDS011;33718;50.910;-1.514;2024-03-02T00:42:54;8.90;;;0.73;;
47958;SDS011;33718;50.910;-1.514;2024-03-02T00:44:56;6.45;;;1.02;;
47958;SDS011;33718;50.910;-1.514;2024-03-02T00:47:16;9.40;;;0.60;;
47958;SDS011;33718;50.910;-1.514;2024-03-02T00:49:18;2.67;;;0.98;;
47958;SDS011;33718;50.910;-1.514;2024-03-02T00:51:22;10.25;;;0.85;;
47958;SDS011;33718;50.910;-1.514;2024-03-02T00:53:25;4.97;;;0.50;;
47958;SDS011;33718;50.910;-1.514;2024-03-02T00:55:27;5.82;;;0.77;;
47958;SDS011;33718;50.910;-1.514;2024-03-02T00:57:29;6.82;;;1.00;;
47958;SDS011;33718;50.910;-1.514;2024-03-02T00:59:33;15.43;;;1.50;;
47958;SDS011;33718;50.910;-1.514;2024-03-02T01:01:34;3.88;;;1.27;;
47958;SDS011;33718;50.910;-1.514;2024-03-02T01:03:36;4.30;;;0.85;;
47958;SDS011;33718;50.910;-1.514;2024-03-02T01:05:41;7.22;;;1.35;;
47958;SDS011;33718;50.910;-1.514;2024-03-02T01:07:43;8.55;;;0.50;;
47958;SDS011;33718;50.910;-1.514;2024-03-02T01:09:45;4.50;;;0.50;;
47958;SDS011;33718;50.910;-1.514;2024-03-02T01:11:47;6.57;;;0.40;;
47958;SDS011;33718;50.910;-1.514;2024-03-02T01:13:49;7.32;;;0.40;;
47958;SDS011;33718;50.910;-1.514;2024-03-02T01:16:09;8.27;;;0.60;;
47958;SDS011;33718;50.910;-1.514;2024-03-02T01:18:10;7.15;;;0.60;;
47958;SDS011;33718;50.910;-1.514;2024-03-02T01:20:12;1.38;;;0.40;;
47958;SDS011;33718;50.910;-1.514;2024-03-02T01:22:13;3.38;;;0.20;;
47958;SDS011;33718;50.910;-1.514;2024-03-02T01:24:15;11.85;;;0.85;;
47958;SDS011;33718;50.910;-1.514;2024-03-02T01:26:17;5.43;;;0.63;;
47958;SDS011;33718;50.910;-1.514;2024-03-02T01:28:18;5.57;;;0.50;;
47958;SDS011;33718;50.910;-1.514;2024-03-02T01:30:22;1.60;;;0.50;;
47958;SDS011;33718;50.910;-1.514;2024-03-02T01:32:24;12.27;;;0.50;;
47958;SDS011;33718;50.910;-1.514;2024-03-02T01:34:25;8.05;;;1.50;;
47958;SDS011;33718;50.910;-1.514;2024-03-02T01:36:27;3.72;;;0.82;;
47958;SDS011;33718;50.910;-1.514;2024-03-02T01:38:48;10.90;;;0.60;;
47958;SDS011;33718;50.910;-1.514;2024-03-02T01:40:50;4.97;;;0.93;;
47958;SDS011;33718;50.910;-1.514;2024-03-02T01:42:54;5.53;;;0.45;;
47958;SDS011;33718;50.910;-1.514;2024-03-02T01:44:56;7.10;;;1.38;;
47958;SDS011;33718;50.910;-1.514;2024-03-02T01:46:59;7.93;;;1.27;;
47958;SDS011;33718;50.910;-1.514;2024-03-02T01:49:01;17.20;;;0.98;;
47958;SDS011;33718;50.910;-1.514;2024-03-02T01:51:05;6.20;;;0.60;;
47958;SDS011;33718;50.910;-1.514;2024-03-02T01:53:08;10.70;;;0.60;;
47958;SDS011;33718;50.910;-1.514;2024-03-02T01:55:10;9.93;;;0.93;;
47958;SDS011;33718;50.910;-1.514;2024-03-02T01:57:12;7.25;;;1.10;;
47958;SDS011;33718;50.910;-1.514;2024-03-02T01:59:13;4.80;;;0.30;;
47958;SDS011;33718;50.910;-1.514;2024-03-02T02:01:15;6.38;;;0.88;;
47958;SDS011;33718;50.910;-1.514;2024-03-02T02:03:18;7.85;;;0.93;;
47958;SDS011;33718;50.910;-1.514;2024-03-02T02:05:22;7.60;;;1.10;;
47958;SDS011;33718;50.910;-1.514;2024-03-02T02:07:24;12.93;;;1.58;;
47958;SDS011;33718;50.910;-1.514;2024-03-02T02:09:28;13.20;;;1.10;;
47958;SDS011;33718;50.910;-1.514;2024-03-02T02:11:32;8.50;;;0.60;;
47958;SDS011;33718;50.910;-1.514;2024-03-02T02:13:33;10.88;;;0.75;;
47958;SDS011;33718;50.910;-1.514;2024-03-02T02:15:39;6.28;;;1.33;;
47958;SDS011;33718;50.910;-1.514;2024-03-02T02:17:42;5.63;;;0.63;;
47958;SDS011;33718;50.910;-1.514;2024-03-02T02:19:44;23.55;;;1.65;;
47958;SDS011;33718;50.910;-1.514;2024-03-02T02:21:47;7.82;;;1.15;;
47958;SDS011;33718;50.910;-1.514;2024-03-02T02:23:49;11.20;;;0.65;;
47958;SDS011;33718;50.910;-1.514;2024-03-02T02:25:52;8.27;;;0.85;;
47958;SDS011;33718;50.910;-1.514;2024-03-02T02:27:56;7.50;;;1.10;;
47958;SDS011;33718;50.910;-1.514;2024-03-02T02:29:58;14.32;;;1.75;;
47958;SDS011;33718;50.910;-1.514;2024-03-02T02:32:02;15.13;;;1.70;;
47958;SDS011;33718;50.910;-1.514;2024-03-02T02:34:04;12.25;;;1.10;;
47958;SDS011;33718;50.910;-1.514;2024-03-02T02:36:06;27.67;;;1.42;;
47958;SDS011;33718;50.910;-1.514;2024-03-02T02:38:07;10.63;;;1.17;;
47958;SDS011;33718;50.910;-1.514;2024-03-02T02:40:09;14.68;;;1.35;;
47958;SDS011;33718;50.910;-1.514;2024-03-02T02:42:10;21.08;;;1.75;;
47958;SDS011;33718;50.910;-1.514;2024-03-02T02:44:12;25.38;;;3.00;;
47958;SDS011;33718;50.910;-1.514;2024-03-02T02:46:14;22.23;;;2.83;;
47958;SDS011;33718;50.910;-1.514;2024-03-02T02:48:16;31.13;;;3.17;;
47958;SDS011;33718;50.910;-1.514;2024-03-02T02:50:17;40.40;;;4.03;;
47958;SDS011;33718;50.910;-1.514;2024-03-02T02:52:19;40.45;;;3.75;;
47958;SDS011;33718;50.910;-1.514;2024-03-02T02:54:21;30.95;;;3.97;;
47958;SDS011;33718;50.910;-1.514;2024-03-02T02:56:23;29.35;;;3.78;;
47958;SDS011;33718;50.910;-1.514;2024-03-02T02:58:25;23.45;;;2.97;;
47958;SDS011;33718;50.910;-1.514;2024-03-02T03:00:27;31.98;;;3.33;;
47958;SDS011;33718;50.910;-1.514;2024-03-02T03:02:28;36.83;;;3.78;;
47958;SDS011;33718;50.910;-1.514;2024-03-02T03:04:30;35.78;;;4.35;;
47958;SDS011;33718;50.910;-1.514;2024-03-02T03:06:31;28.48;;;3.78;;
47958;SDS011;33718;50.910;-1.514;2024-03-02T03:08:33;36.42;;;2.85;;
47958;SDS011;33718;50.910;-1.514;2024-03-02T03:10:53;30.98;;;2.97;;
47958;SDS011;33718;50.910;-1.514;2024-03-02T03:12:55;37.75;;;3.85;;
47958;SDS011;33718;50.910;-1.514;2024-03-02T03:14:58;22.23;;;4.75;;
47958;SDS011;33718;50.910;-1.514;2024-03-02T03:16:59;19.88;;;2.30;;
47958;SDS011;33718;50.910;-1.514;2024-03-02T03:19:01;32.83;;;2.92;;
47958;SDS011;33718;50.910;-1.514;2024-03-02T03:21:02;27.23;;;3.55;;
47958;SDS011;33718;50.910;-1.514;2024-03-02T03:23:04;33.03;;;3.25;;
47958;SDS011;33718;50.910;-1.514;2024-03-02T03:25:06;32.38;;;3.88;;
47958;SDS011;33718;50.910;-1.514;2024-03-02T03:27:10;28.25;;;3.05;;
47958;SDS011;33718;50.910;-1.514;2024-03-02T03:29:13;28.50;;;3.17;;
47958;SDS011;33718;50.910;-1.514;2024-03-02T03:31:14;26.58;;;1.80;;
47958;SDS011;33718;50.910;-1.514;2024-03-02T03:33:34;21.85;;;2.30;;
47958;SDS011;33718;50.910;-1.514;2024-03-02T03:35:36;24.10;;;3.60;;
47958;SDS011;33718;50.910;-1.514;2024-03-02T03:37:38;32.13;;;4.03;;
47958;SDS011;33718;50.910;-1.514;2024-03-02T03:39:39;22.60;;;2.40;;
47958;SDS011;33718;50.910;-1.514;2024-03-02T03:41:41;27.17;;;2.97;;
47958;SDS011;33718;50.910;-1.514;2024-03-02T03:43:42;25.33;;;2.67;;
47958;SDS011;33718;50.910;-1.514;2024-03-02T03:45:44;35.03;;;3.40;;
47958;SDS011;33718;50.910;-1.514;2024-03-02T03:47:46;27.83;;;3.42;;
47958;SDS011;33718;50.910;-1.514;2024-03-02T03:49:47;26.63;;;2.92;;
47958;SDS011;33718;50.910;-1.514;2024-03-02T03:52:07;27.85;;;2.35;;
47958;SDS011;33718;50.910;-1.514;2024-03-02T03:54:09;24.00;;;3.67;;
47958;SDS011;33718;50.910;-1.514;2024-03-02T03:56:12;12.13;;;2.30;;
47958;SDS011;33718;50.910;-1.514;2024-03-02T03:58:15;23.65;;;2.33;;
47958;SDS011;33718;50.910;-1.514;2024-03-02T04:00:20;12.60;;;1.80;;
47958;SDS011;33718;50.910;-1.514;2024-03-02T04:02:22;11.75;;;1.20;;
47958;SDS011;33718;50.910;-1.514;2024-03-02T04:04:26;5.53;;;1.25;;
47958;SDS011;33718;50.910;-1.514;2024-03-02T04:06:27;13.40;;;1.35;;
47958;SDS011;33718;50.910;-1.514;2024-03-02T04:08:29;12.45;;;1.42;;
47958;SDS011;33718;50.910;-1.514;2024-03-02T04:10:31;13.25;;;1.13;;
47958;SDS011;33718;50.910;-1.514;2024-03-02T04:12:32;20.63;;;1.75;;
47958;SDS011;33718;50.910;-1.514;2024-03-02T04:14:53;12.10;;;1.50;;
47958;SDS011;33718;50.910;-1.514;2024-03-02T04:16:54;19.58;;;2.47;;
47958;SDS011;33718;50.910;-1.514;2024-03-02T04:18:56;12.93;;;0.98;;
47958;SDS011;33718;50.910;-1.514;2024-03-02T04:20:58;22.30;;;1.50;;
47958;SDS011;33718;50.910;-1.514;2024-03-02T04:23:02;15.77;;;1.80;;
47958;SDS011;33718;50.910;-1.514;2024-03-02T04:25:04;16.92;;;1.27;;
47958;SDS011;33718;50.910;-1.514;2024-03-02T04:27:06;13.05;;;0.90;;
47958;SDS011;33718;50.910;-1.514;2024-03-02T04:29:08;25.73;;;1.35;;
47958;SDS011;33718;50.910;-1.514;2024-03-02T04:31:28;12.35;;;1.00;;
47958;SDS011;33718;50.910;-1.514;2024-03-02T04:33:48;7.70;;;1.15;;
47958;SDS011;33718;50.910;-1.514;2024-03-02T04:35:50;20.63;;;2.17;;
47958;SDS011;33718;50.910;-1.514;2024-03-02T04:37:51;14.23;;;1.40;;
47958;SDS011;33718;50.910;-1.514;2024-03-02T04:40:12;18.63;;;0.93;;
47958;SDS011;33718;50.910;-1.514;2024-03-02T04:42:14;10.20;;;1.52;;
47958;SDS011;33718;50.910;-1.514;2024-03-02T04:44:15;14.25;;;1.10;;
47958;SDS011;33718;50.910;-1.514;2024-03-02T04:46:18;16.95;;;0.85;;
47958;SDS011;33718;50.910;-1.514;2024-03-02T04:48:39;7.57;;;1.13;;
47958;SDS011;33718;50.910;-1.514;2024-03-02T04:50:40;13.23;;;0.98;;
47958;SDS011;33718;50.910;-1.514;2024-03-02T04:52:42;2.97;;;1.13;;
47958;SDS011;33718;50.910;-1.514;2024-03-02T04:54:44;8.57;;;1.13;;
47958;SDS011;33718;50.910;-1.514;2024-03-02T04:57:05;9.05;;;0.70;;
47958;SDS011;33718;50.910;-1.514;2024-03-02T04:59:07;20.00;;;1.60;;
47958;SDS011;33718;50.910;-1.514;2024-03-02T05:01:28;5.95;;;0.80;;
47958;SDS011;33718;50.910;-1.514;2024-03-02T05:03:50;13.05;;;1.17;;
47958;SDS011;33718;50.910;-1.514;2024-03-02T05:05:54;8.30;;;1.08;;
47958;SDS011;33718;50.910;-1.514;2024-03-02T05:07:58;8.57;;;1.10;;
47958;SDS011;33718;50.910;-1.514;2024-03-02T05:10:20;10.40;;;0.85;;
47958;SDS011;33718;50.910;-1.514;2024-03-02T05:12:22;9.88;;;3.22;;
47958;SDS011;33718;50.910;-1.514;2024-03-02T05:14:51;7.80;;;0.70;;
47958;SDS011;33718;50.910;-1.514;2024-03-02T05:16:53;7.35;;;0.93;;
47958;SDS011;33718;50.910;-1.514;2024-03-02T05:18:56;9.18;;;0.90;;
47958;SDS011;33718;50.910;-1.514;2024-03-02T05:21:00;8.77;;;0.80;;
47958;SDS011;33718;50.910;-1.514;2024-03-02T05:23:02;6.60;;;0.65;;
47958;SDS011;33718;50.910;-1.514;2024-03-02T05:25:07;4.07;;;0.70;;
47958;SDS011;33718;50.910;-1.514;2024-03-02T05:27:12;4.45;;;0.90;;
47958;SDS011;33718;50.910;-1.514;2024-03-02T05:29:14;15.43;;;1.27;;
47958;SDS011;33718;50.910;-1.514;2024-03-02T05:31:17;10.38;;;1.25;;
47958;SDS011;33718;50.910;-1.514;2024-03-02T05:33:20;8.00;;;1.30;;
47958;SDS011;33718;50.910;-1.514;2024-03-02T05:37:44;9.60;;;1.27;;
47958;SDS011;33718;50.910;-1.514;2024-03-02T05:39:45;6.32;;;0.75;;
47958;SDS011;33718;50.910;-1.514;2024-03-02T05:41:47;8.70;;;1.33;;
47958;SDS011;33718;50.910;-1.514;2024-03-02T05:43:48;9.80;;;1.30;;
47958;SDS011;33718;50.910;-1.514;2024-03-02T05:45:50;6.35;;;1.02;;
47958;SDS011;33718;50.910;-1.514;2024-03-02T05:47:52;13.00;;;1.02;;
47958;SDS011;33718;50.910;-1.514;2024-03-02T05:49:54;3.42;;;0.90;;
47958;SDS011;33718;50.910;-1.514;2024-03-02T05:51:55;8.38;;;0.73;;
47958;SDS011;33718;50.910;-1.514;2024-03-02T05:53:57;7.93;;;1.27;;
47958;SDS011;33718;50.910;-1.514;2024-03-02T05:55:59;10.30;;;0.75;;
47958;SDS011;33718;50.910;-1.514;2024-03-02T05:58:05;10.13;;;1.38;;
47958;SDS011;33718;50.910;-1.514;2024-03-02T06:00:07;5.18;;;0.73;;
47958;SDS011;33718;50.910;-1.514;2024-03-02T06:02:09;6.80;;;0.70;;
47958;SDS011;33718;50.910;-1.514;2024-03-02T06:04:11;11.27;;;1.20;;
47958;SDS011;33718;50.910;-1.514;2024-03-02T06:06:12;8.60;;;0.80;;
47958;SDS011;33718;50.910;-1.514;2024-03-02T06:08:14;7.68;;;1.65;;
47958;SDS011;33718;50.910;-1.514;2024-03-02T06:10:16;5.60;;;1.58;;
47958;SDS011;33718;50.910;-1.514;2024-03-02T06:12:18;7.60;;;1.13;;
47958;SDS011;33718;50.910;-1.514;2024-03-02T06:14:20;11.93;;;1.48;;
47958;SDS011;33718;50.910;-1.514;2024-03-02T06:16:22;13.68;;;1.40;;
47958;SDS011;33718;50.910;-1.514;2024-03-02T06:18:23;6.50;;;1.00;;
47958;SDS011;33718;50.910;-1.514;2024-03-02T06:20:25;12.63;;;0.95;;
47958;SDS011;33718;50.910;-1.514;2024-03-02T06:22:28;1.38;;;0.75;;
47958;SDS011;33718;50.910;-1.514;2024-03-02T06:24:29;1.95;;;0.70;;
47958;SDS011;33718;50.910;-1.514;2024-03-02T06:26:50;4.40;;;1.92;;
47958;SDS011;33718;50.910;-1.514;2024-03-02T06:28:51;1.75;;;1.25;;
47958;SDS011;33718;50.910;-1.514;2024-03-02T06:30:53;3.83;;;0.52;;
47958;SDS011;33718;50.910;-1.514;2024-03-02T06:32:55;1.52;;;0.73;;
47958;SDS011;33718;50.910;-1.514;2024-03-02T06:34:57;1.65;;;0.55;;
47958;SDS011;33718;50.910;-1.514;2024-03-02T06:36:58;1.95;;;0.55;;
47958;SDS011;33718;50.910;-1.514;2024-03-02T06:39:00;3.17;;;0.40;;
47958;SDS011;33718;50.910;-1.514;2024-03-02T06:41:02;3.78;;;0.63;;
47958;SDS011;33718;50.910;-1.514;2024-03-02T06:43:03;0.60;;;0.50;;
47958;SDS011;33718;50.910;-1.514;2024-03-02T06:45:24;0.35;;;0.35;;
47958;SDS011;33718;50.910;-1.514;2024-03-02T06:47:25;0.57;;;0.47;;
47958;SDS011;33718;50.910;-1.514;2024-03-02T06:49:27;1.25;;;0.60;;
47958;SDS011;33718;50.910;-1.514;2024-03-02T06:51:29;0.68;;;0.50;;
47958;SDS011;33718;50.910;-1.514;2024-03-02T06:53:30;1.50;;;0.55;;
47958;SDS011;33718;50.910;-1.514;2024-03-02T06:57:36;3.25;;;0.60;;
47958;SDS011;33718;50.910;-1.514;2024-03-02T06:59:38;0.85;;;0.57;;
47958;SDS011;33718;50.910;-1.514;2024-03-02T07:01:39;1.33;;;0.80;;
47958;SDS011;33718;50.910;-1.514;2024-03-02T07:03:41;4.57;;;1.10;;
47958;SDS011;33718;50.910;-1.514;2024-03-02T07:05:42;4.93;;;1.00;;
47958;SDS011;33718;50.910;-1.514;2024-03-02T07:07:44;2.38;;;0.73;;
47958;SDS011;33718;50.910;-1.514;2024-03-02T07:09:46;2.22;;;0.93;;
47958;SDS011;33718;50.910;-1.514;2024-03-02T07:11:47;1.98;;;0.80;;
47958;SDS011;33718;50.910;-1.514;2024-03-02T07:13:52;2.83;;;0.80;;
47958;SDS011;33718;50.910;-1.514;2024-03-02T07:16:12;1.77;;;0.68;;
47958;SDS011;33718;50.910;-1.514;2024-03-02T07:18:29;0.85;;;0.60;;
47958;SDS011;33718;50.910;-1.514;2024-03-02T07:20:32;3.78;;;0.70;;
47958;SDS011;33718;50.910;-1.514;2024-03-02T07:22:33;1.08;;;0.70;;
47958;SDS011;33718;50.910;-1.514;2024-03-02T07:24:44;1.27;;;0.68;;
47958;SDS011;33718;50.910;-1.514;2024-03-02T07:26:47;1.05;;;0.65;;
47958;SDS011;33718;50.910;-1.514;2024-03-02T07:28:51;0.93;;;0.70;;
47958;SDS011;33718;50.910;-1.514;2024-03-02T07:31:00;0.73;;;0.60;;
47958;SDS011;33718;50.910;-1.514;2024-03-02T07:33:21;0.95;;;0.77;;
47958;SDS011;33718;50.910;-1.514;2024-03-02T07:35:42;1.83;;;0.60;;
47958;SDS011;33718;50.910;-1.514;2024-03-02T07:37:44;1.15;;;0.90;;
47958;SDS011;33718;50.910;-1.514;2024-03-02T07:39:46;1.27;;;0.70;;
47958;SDS011;33718;50.910;-1.514;2024-03-02T07:41:47;0.98;;;0.70;;
47958;SDS011;33718;50.910;-1.514;2024-03-02T07:43:49;1.38;;;0.75;;
47958;SDS011;33718;50.910;-1.514;2024-03-02T07:45:51;1.55;;;0.73;;
47958;SDS011;33718;50.910;-1.514;2024-03-02T07:48:11;0.63;;;0.63;;
47958;SDS011;33718;50.910;-1.514;2024-03-02T07:50:14;0.95;;;0.68;;
47958;SDS011;33718;50.910;-1.514;2024-03-02T07:52:15;6.47;;;0.70;;
47958;SDS011;33718;50.910;-1.514;2024-03-02T07:54:17;1.17;;;0.70;;
47958;SDS011;33718;50.910;-1.514;2024-03-02T07:56:20;0.97;;;0.73;;
47958;SDS011;33718;50.910;-1.514;2024-03-02T07:58:24;1.90;;;0.98;;
47958;SDS011;33718;50.910;-1.514;2024-03-02T08:00:26;1.90;;;0.93;;
47958;SDS011;33718;50.910;-1.514;2024-03-02T08:02:33;2.20;;;1.10;;
47958;SDS011;33718;50.910;-1.514;2024-03-02T08:04:34;3.47;;;1.55;;
47958;SDS011;33718;50.910;-1.514;2024-03-02T08:06:38;3.42;;;1.10;;
47958;SDS011;33718;50.910;-1.514;2024-03-02T08:08:41;1.77;;;1.20;;
47958;SDS011;33718;50.910;-1.514;2024-03-02T08:11:02;2.90;;;1.40;;
47958;SDS011;33718;50.910;-1.514;2024-03-02T08:13:07;2.88;;;1.00;;
47958;SDS011;33718;50.910;-1.514;2024-03-02T08:15:11;2.00;;;1.20;;
47958;SDS011;33718;50.910;-1.514;2024-03-02T08:31:47;1.30;;;1.00;;
47958;SDS011;33718;50.910;-1.514;2024-03-02T08:33:52;1.25;;;1.05;;
47958;SDS011;33718;50.910;-1.514;2024-03-02T08:37:58;1.00;;;0.90;;
47958;SDS011;33718;50.910;-1.514;2024-03-02T08:40:03;3.33;;;0.90;;
47958;SDS011;33718;50.910;-1.514;2024-03-02T08:42:06;2.28;;;1.00;;
47958;SDS011;33718;50.910;-1.514;2024-03-02T08:44:28;1.50;;;0.85;;
47958;SDS011;33718;50.910;-1.514;2024-03-02T08:46:30;0.60;;;0.60;;
47958;SDS011;33718;50.910;-1.514;2024-03-02T08:48:50;1.25;;;0.80;;
47958;SDS011;33718;50.910;-1.514;2024-03-02T08:52:53;0.70;;;0.68;;
47958;SDS011;33718;50.910;-1.514;2024-03-02T08:54:55;1.42;;;0.88;;
47958;SDS011;33718;50.910;-1.514;2024-03-02T08:56:56;0.60;;;0.55;;
47958;SDS011;33718;50.910;-1.514;2024-03-02T08:58:58;0.70;;;0.60;;
47958;SDS011;33718;50.910;-1.514;2024-03-02T09:00:59;1.17;;;0.50;;
47958;SDS011;33718;50.910;-1.514;2024-03-02T09:03:01;1.25;;;0.60;;
47958;SDS011;33718;50.910;-1.514;2024-03-02T09:05:03;1.30;;;1.20;;
47958;SDS011;33718;50.910;-1.514;2024-03-02T09:07:23;0.35;;;0.35;;
47958;SDS011;33718;50.910;-1.514;2024-03-02T09:09:25;0.40;;;0.30;;
47958;SDS011;33718;50.910;-1.514;2024-03-02T09:11:26;1.65;;;0.32;;
47958;SDS011;33718;50.910;-1.514;2024-03-02T09:13:29;2.13;;;0.50;;
47958;SDS011;33718;50.910;-1.514;2024-03-02T09:15:30;0.57;;;0.43;;
47958;SDS011;33718;50.910;-1.514;2024-03-02T09:17:36;0.40;;;0.40;;
47958;SDS011;33718;50.910;-1.514;2024-03-02T09:19:38;0.85;;;0.47;;
47958;SDS011;33718;50.910;-1.514;2024-03-02T09:21:39;0.93;;;0.70;;
47958;SDS011;33718;50.910;-1.514;2024-03-02T09:23:43;2.73;;;0.87;;
47958;SDS011;33718;50.910;-1.514;2024-03-02T09:25:47;1.55;;;0.70;;
47958;SDS011;33718;50.910;-1.514;2024-03-02T09:27:48;1.02;;;0.60;;
47958;SDS011;33718;50.910;-1.514;2024-03-02T09:29:50;2.83;;;0.80;;
47958;SDS011;33718;50.910;-1.514;2024-03-02T09:31:51;0.52;;;0.50;;
47958;SDS011;33718;50.910;-1.514;2024-03-02T09:33:53;0.43;;;0.35;;
47958;SDS011;33718;50.910;-1.514;2024-03-02T09:36:17;0.93;;;0.68;;
47958;SDS011;33718;50.910;-1.514;2024-03-02T09:38:19;0.40;;;0.40;;
47958;SDS011;33718;50.910;-1.514;2024-03-02T09:40:21;3.80;;;0.50;;
47958;SDS011;33718;50.910;-1.514;2024-03-02T09:42:23;1.17;;;0.50;;
47958;SDS011;33718;50.910;-1.514;2024-03-02T09:44:25;2.03;;;0.60;;
47958;SDS011;33718;50.910;-1.514;2024-03-02T09:46:27;2.67;;;0.85;;
47958;SDS011;33718;50.910;-1.514;2024-03-02T09:48:29;2.50;;;1.48;;
47958;SDS011;33718;50.910;-1.514;2024-03-02T09:50:30;1.25;;;0.80;;
47958;SDS011;33718;50.910;-1.514;2024-03-02T09:52:32;0.82;;;0.55;;
47958;SDS011;33718;50.910;-1.514;2024-03-02T09:54:34;2.25;;;0.73;;
47958;SDS011;33718;50.910;-1.514;2024-03-02T09:56:35;1.65;;;0.80;;
47958;SDS011;33718;50.910;-1.514;2024-03-02T09:58:38;3.22;;;1.52;;
47958;SDS011;33718;50.910;-1.514;2024-03-02T10:00:40;2.88;;;0.95;;
47958;SDS011;33718;50.910;-1.514;2024-03-02T10:02:42;3.30;;;0.75;;
47958;SDS011;33718;50.910;-1.514;2024-03-02T10:04:43;3.80;;;1.15;;
47958;SDS011;33718;50.910;-1.514;2024-03-02T10:06:46;0.70;;;0.70;;
47958;SDS011;33718;50.910;-1.514;2024-03-02T10:08:47;1.05;;;0.75;;
47958;SDS011;33718;50.910;-1.514;2024-03-02T10:11:10;4.85;;;1.20;;
47958;SDS011;33718;50.910;-1.514;2024-03-02T10:13:13;4.55;;;0.90;;
47958;SDS011;33718;50.910;-1.514;2024-03-02T10:15:33;1.08;;;0.85;;
47958;SDS011;33718;50.910;-1.514;2024-03-02T10:17:35;0.93;;;0.82;;
47958;SDS011;33718;50.910;-1.514;2024-03-02T10:19:55;1.00;;;0.73;;
47958;SDS011;33718;50.910;-1.514;2024-03-02T10:22:15;1.75;;;1.35;;
47958;SDS011;33718;50.910;-1.514;2024-03-02T10:24:17;1.27;;;0.95;;
47958;SDS011;33718;50.910;-1.514;2024-03-02T10:26:37;3.65;;;1.38;;
47958;SDS011;33718;50.910;-1.514;2024-03-02T10:28:45;2.75;;;1.95;;
47958;SDS011;33718;50.910;-1.514;2024-03-02T10:30:47;0.95;;;0.88;;
47958;SDS011;33718;50.910;-1.514;2024-03-02T10:32:50;1.27;;;0.68;;
47958;SDS011;33718;50.910;-1.514;2024-03-02T10:34:52;2.15;;;0.70;;
47958;SDS011;33718;50.910;-1.514;2024-03-02T10:36:54;1.08;;;0.80;;
47958;SDS011;33718;50.910;-1.514;2024-03-02T10:38:56;0.63;;;0.38;;
47958;SDS011;33718;50.910;-1.514;2024-03-02T10:41:00;0.90;;;0.32;;
47958;SDS011;33718;50.910;-1.514;2024-03-02T10:43:20;2.80;;;0.40;;
47958;SDS011;33718;50.910;-1.514;2024-03-02T10:45:22;0.80;;;0.28;;
47958;SDS011;33718;50.910;-1.514;2024-03-02T10:47:24;0.30;;;0.30;;
47958;SDS011;33718;50.910;-1.514;2024-03-02T10:49:28;1.00;;;0.30;;
47958;SDS011;33718;50.910;-1.514;2024-03-02T10:51:31;0.10;;;0.10;;
47958;SDS011;33718;50.910;-1.514;2024-03-02T10:53:33;0.40;;;0.30;;
47958;SDS011;33718;50.910;-1.514;2024-03-02T10:55:35;0.20;;;0.20;;
47958;SDS011;33718;50.910;-1.514;2024-03-02T10:57:56;0.20;;;0.20;;
47958;SDS011;33718;50.910;-1.514;2024-03-02T11:00:02;0.67;;;0.30;;
47958;SDS011;33718;50.910;-1.514;2024-03-02T11:06:13;0.40;;;0.20;;
47958;SDS011;33718;50.910;-1.514;2024-03-02T11:10:19;1.00;;;0.28;;
47958;SDS011;33718;50.910;-1.514;2024-03-02T11:12:31;0.55;;;0.32;;
47958;SDS011;33718;50.910;-1.514;2024-03-02T11:14:42;0.88;;;0.43;;
47958;SDS011;33718;50.910;-1.514;2024-03-02T11:16:47;0.50;;;0.30;;
47958;SDS011;33718;50.910;-1.514;2024-03-02T11:18:51;0.40;;;0.40;;
47958;SDS011;33718;50.910;-1.514;2024-03-02T11:21:11;1.75;;;0.40;;
47958;SDS011;33718;50.910;-1.514;2024-03-02T11:23:13;0.20;;;0.20;;
47958;SDS011;33718;50.910;-1.514;2024-03-02T11:25:26;0.30;;;0.30;;
47958;SDS011;33718;50.910;-1.514;2024-03-02T11:29:53;0.25;;;0.25;;
47958;SDS011;33718;50.910;-1.514;2024-03-02T11:31:58;0.40;;;0.40;;
47958;SDS011;33718;50.910;-1.514;2024-03-02T11:34:18;0.43;;;0.43;;
47958;SDS011;33718;50.910;-1.514;2024-03-02T11:36:31;1.17;;;0.40;;
47958;SDS011;33718;50.910;-1.514;2024-03-02T11:38:34;1.10;;;0.75;;
47958;SDS011;33718;50.910;-1.514;2024-03-02T11:40:41;0.32;;;0.13;;
47958;SDS011;33718;50.910;-1.514;2024-03-02T11:42:43;0.38;;;0.38;;
47958;SDS011;33718;50.910;-1.514;2024-03-02T11:47:07;1.70;;;0.40;;
47958;SDS011;33718;50.910;-1.514;2024-03-02T11:51:53;0.70;;;0.40;;
47958;SDS011;33718;50.910;-1.514;2024-03-02T11:54:01;0.50;;;0.50;;
47958;SDS011;33718;50.910;-1.514;2024-03-02T11:56:04;2.17;;;0.30;;
47958;SDS011;33718;50.910;-1.514;2024-03-02T12:00:16;1.83;;;0.40;;
47958;SDS011;33718;50.910;-1.514;2024-03-02T12:02:18;3.10;;;0.43;;
47958;SDS011;33718;50.910;-1.514;2024-03-02T12:04:21;1.02;;;0.98;;
47958;SDS011;33718;50.910;-1.514;2024-03-02T12:06:23;3.75;;;0.30;;
47958;SDS011;33718;50.910;-1.514;2024-03-02T12:08:25;3.92;;;0.80;;
47958;SDS011;33718;50.910;-1.514;2024-03-02T12:10:27;4.65;;;0.52;;
47958;SDS011;33718;50.910;-1.514;2024-03-02T12:12:29;4.53;;;0.85;;
47958;SDS011;33718;50.910;-1.514;2024-03-02T12:14:50;3.70;;;0.73;;
47958;SDS011;33718;50.910;-1.514;2024-03-02T12:17:10;0.60;;;0.60;;
47958;SDS011;33718;50.910;-1.514;2024-03-02T12:19:14;2.42;;;0.90;;
47958;SDS011;33718;50.910;-1.514;2024-03-02T12:21:17;1.05;;;0.65;;
47958;SDS011;33718;50.910;-1.514;2024-03-02T12:23:38;5.05;;;1.17;;
47958;SDS011;33718;50.910;-1.514;2024-03-02T12:25:39;2.58;;;0.70;;
47958;SDS011;33718;50.910;-1.514;2024-03-02T12:27:41;1.33;;;0.80;;
47958;SDS011;33718;50.910;-1.514;2024-03-02T12:29:43;0.98;;;0.60;;
47958;SDS011;33718;50.910;-1.514;2024-03-02T12:31:44;0.70;;;0.70;;
47958;SDS011;33718;50.910;-1.514;2024-03-02T12:33:49;5.70;;;0.60;;
47958;SDS011;33718;50.910;-1.514;2024-03-02T12:35:51;0.57;;;0.57;;
47958;SDS011;33718;50.910;-1.514;2024-03-02T12:37:53;2.38;;;0.75;;
47958;SDS011;33718;50.910;-1.514;2024-03-02T12:39:55;3.20;;;1.00;;
47958;SDS011;33718;50.910;-1.514;2024-03-02T12:41:56;1.35;;;0.60;;
47958;SDS011;33718;50.910;-1.514;2024-03-02T12:43:58;0.80;;;0.60;;
47958;SDS011;33718;50.910;-1.514;2024-03-02T12:46:00;0.88;;;0.57;;
47958;SDS011;33718;50.910;-1.514;2024-03-02T12:48:02;1.58;;;0.60;;
47958;SDS011;33718;50.910;-1.514;2024-03-02T12:50:22;1.33;;;0.50;;
47958;SDS011;33718;50.910;-1.514;2024-03-02T12:52:24;3.42;;;0.95;;
47958;SDS011;33718;50.910;-1.514;2024-03-02T12:54:44;4.97;;;0.50;;
47958;SDS011;33718;50.910;-1.514;2024-03-02T12:56:46;3.05;;;0.47;;
47958;SDS011;33718;50.910;-1.514;2024-03-02T12:58:52;3.55;;;0.70;;